Time;durP1;ratioP1;P1;durP2;ratioP2;P2;SDS_P1;SDS_P2;PMS_P1;PMS_P2;Temp;Humidity;BMP_temperature;BMP_pressure;BME280_temperature;BME280_humidity;BME280_pressure;Samples;Min_cycle;Max_cycle;Signal;HPM_P1;HPM_P2
2022/05/24 00:00:58;;;;;;;1.50;0.63;;;16.60;99.90;;;;;;4997920;28;20122;-78
2022/05/24 00:03:23;;;;;;;1.35;0.60;;;16.60;99.90;;;;;;4994777;28;20034;-78
2022/05/24 00:05:49;;;;;;;1.00;0.40;;;16.50;99.90;;;;;;4997736;28;20054;-78
2022/05/24 00:08:15;;;;;;;2.47;0.45;;;16.50;99.90;;;;;;4994588;28;20026;-79
2022/05/24 00:10:40;;;;;;;3.55;1.40;;;16.50;99.90;;;;;;4997780;28;20031;-79
2022/05/24 00:13:08;;;;;;;0.55;0.30;;;16.50;99.90;;;;;;4996627;28;20054;-78
2022/05/24 00:15:34;;;;;;;1.88;0.73;;;16.50;99.90;;;;;;5001427;28;20124;-82
2022/05/24 00:18:10;;;;;;;0.40;0.40;;;16.50;99.90;;;;;;5003686;28;20118;-78
2022/05/24 00:20:48;;;;;;;0.75;0.30;;;16.50;99.90;;;;;;5001139;28;20050;-78
2022/05/24 00:23:14;;;;;;;3.88;0.93;;;16.50;99.90;;;;;;5004709;28;20053;-78
2022/05/24 00:25:43;;;;;;;0.43;0.43;;;16.50;99.90;;;;;;5004334;28;20034;-79
2022/05/24 00:28:09;;;;;;;2.50;0.55;;;16.40;99.90;;;;;;4992324;28;20032;-79
2022/05/24 00:30:36;;;;;;;1.73;1.05;;;16.40;99.90;;;;;;4996837;28;20581;-79
2022/05/24 00:33:02;;;;;;;0.75;0.52;;;16.40;99.90;;;;;;4999008;28;20023;-79
2022/05/24 00:35:28;;;;;;;0.40;0.40;;;16.40;99.90;;;;;;4997950;28;20034;-79
2022/05/24 00:37:54;;;;;;;2.35;0.50;;;16.40;99.90;;;;;;5002362;28;20655;-79
2022/05/24 00:40:25;;;;;;;1.25;0.47;;;16.40;99.90;;;;;;4998877;28;20023;-78
2022/05/24 00:42:51;;;;;;;1.27;0.55;;;16.40;99.90;;;;;;5002866;28;20037;-82
2022/05/24 00:45:29;;;;;;;1.25;0.60;;;16.20;99.90;;;;;;4993462;28;20041;-79
2022/05/24 00:48:06;;;;;;;2.80;1.05;;;15.90;99.90;;;;;;4991115;28;20375;-83
2022/05/24 00:50:36;;;;;;;2.00;0.50;;;15.90;99.90;;;;;;4998690;28;20041;-79
2022/05/24 00:53:12;;;;;;;1.55;1.00;;;15.90;99.90;;;;;;4991749;28;20023;-79
2022/05/24 00:55:49;;;;;;;2.55;0.82;;;15.80;99.90;;;;;;4993179;28;20098;-79
2022/05/24 00:58:57;;;;;;;2.58;0.65;;;15.80;99.90;;;;;;4996058;28;20029;-79
2022/05/24 01:01:39;;;;;;;1.67;0.50;;;15.80;99.90;;;;;;4997414;28;20026;-79
2022/05/24 01:04:07;;;;;;;3.03;0.63;;;15.80;99.90;;;;;;4995602;28;20026;-78
2022/05/24 01:06:36;;;;;;;2.75;1.10;;;15.70;99.90;;;;;;4993079;28;20022;-78
2022/05/24 01:09:07;;;;;;;0.85;0.75;;;15.70;99.90;;;;;;4994041;28;20082;-78
2022/05/24 01:11:38;;;;;;;2.13;0.80;;;15.60;99.90;;;;;;4997596;28;20038;-78
2022/05/24 01:14:07;;;;;;;0.60;0.60;;;15.50;99.90;;;;;;4991284;28;20125;-78
2022/05/24 01:16:33;;;;;;;6.53;1.27;;;15.40;99.90;;;;;;4990610;28;20025;-80
2022/05/24 01:18:59;;;;;;;0.68;0.50;;;15.30;99.90;;;;;;4991620;28;20067;-78
2022/05/24 01:21:25;;;;;;;3.05;0.63;;;15.20;99.90;;;;;;4990683;28;20197;-78
2022/05/24 01:24:20;;;;;;;0.90;0.80;;;15.20;99.90;;;;;;4990649;28;20514;-79
2022/05/24 01:26:55;;;;;;;0.95;0.57;;;15.20;99.90;;;;;;4996875;28;20499;-79
2022/05/24 01:29:23;;;;;;;0.32;0.32;;;15.20;99.90;;;;;;4994651;28;20063;-79
2022/05/24 01:37:20;;;;;;;0.70;0.70;;;15.30;99.90;;;;;;4993268;28;20411;-79
2022/05/24 01:39:53;;;;;;;1.80;0.50;;;15.30;99.90;;;;;;4993863;28;20027;-79
2022/05/24 01:42:20;;;;;;;2.70;0.43;;;15.30;99.90;;;;;;4994866;28;20022;-79
2022/05/24 01:44:57;;;;;;;1.02;0.50;;;15.40;99.90;;;;;;4996284;28;20025;-79
2022/05/24 01:47:24;;;;;;;3.13;0.95;;;15.40;99.90;;;;;;4998215;28;20503;-79
2022/05/24 01:49:55;;;;;;;1.05;0.55;;;15.40;99.90;;;;;;4999150;28;20062;-79
2022/05/24 01:52:28;;;;;;;0.57;0.38;;;15.50;99.90;;;;;;4997036;28;20088;-79
2022/05/24 01:55:07;;;;;;;1.42;0.57;;;15.40;99.90;;;;;;4998404;28;20200;-78
2022/05/24 01:57:44;;;;;;;0.60;0.60;;;15.40;99.90;;;;;;4993115;28;20526;-79
2022/05/24 02:00:12;;;;;;;1.60;0.47;;;15.40;99.90;;;;;;4995202;28;20033;-78
2022/05/24 02:02:38;;;;;;;2.40;1.33;;;15.30;99.90;;;;;;4995134;28;20057;-79
2022/05/24 02:05:05;;;;;;;0.45;0.40;;;15.30;99.90;;;;;;4992825;28;20026;-78
2022/05/24 02:07:32;;;;;;;0.50;0.50;;;15.30;99.90;;;;;;4997952;28;20546;-79
2022/05/24 02:09:57;;;;;;;1.95;1.30;;;15.20;99.90;;;;;;4995597;28;20054;-78
2022/05/24 02:12:29;;;;;;;1.20;0.50;;;15.20;99.90;;;;;;4995557;28;20034;-79
2022/05/24 02:15:08;;;;;;;2.10;0.45;;;15.20;99.90;;;;;;4994209;28;20058;-79
2022/05/24 02:17:42;;;;;;;2.10;0.40;;;15.10;99.90;;;;;;4995412;28;20026;-79
2022/05/24 02:20:11;;;;;;;1.30;0.50;;;15.00;99.90;;;;;;4993070;28;20290;-80
2022/05/24 02:22:38;;;;;;;1.17;0.80;;;15.00;99.90;;;;;;4994557;28;20081;-79
2022/05/24 02:25:37;;;;;;;2.17;1.00;;;15.00;99.90;;;;;;4993496;28;20019;-79
2022/05/24 02:28:04;;;;;;;;;;;14.90;99.90;;;;;;5013869;28;20064;-79
2022/05/24 02:30:32;;;;;;;1.08;0.60;;;14.90;99.90;;;;;;5018468;28;19910;-79
2022/05/24 02:32:57;;;;;;;1.00;0.50;;;14.90;99.90;;;;;;5032892;28;20034;-78
2022/05/24 02:35:24;;;;;;;4.72;1.15;;;14.90;99.90;;;;;;5018909;28;20018;-80
2022/05/24 02:37:49;;;;;;;1.50;0.45;;;15.00;99.90;;;;;;5030625;28;20108;-79
2022/05/24 02:43:00;;;;;;;0.73;0.47;;;14.90;99.90;;;;;;5015407;28;20044;-78
2022/05/24 02:45:27;;;;;;;9.30;1.20;;;14.80;99.90;;;;;;5012576;28;20030;-79
2022/05/24 02:47:52;;;;;;;5.10;0.40;;;14.80;99.90;;;;;;5007229;28;20228;-79
2022/05/24 02:50:20;;;;;;;0.88;0.40;;;14.70;99.90;;;;;;5013563;28;20093;-81
2022/05/24 02:52:46;;;;;;;0.50;0.50;;;14.80;99.90;;;;;;5021796;28;20043;-83
2022/05/24 02:55:14;;;;;;;0.40;0.40;;;;;;;;;;5026797;28;20035;-81
2022/05/24 02:57:40;;;;;;;0.55;0.55;;;14.80;99.90;;;;;;5023101;28;20030;-81
2022/05/24 03:00:14;;;;;;;0.93;0.45;;;14.80;99.90;;;;;;5021066;28;20018;-79
2022/05/24 03:02:40;;;;;;;2.40;0.63;;;14.80;99.90;;;;;;5011113;28;20022;-80
2022/05/24 03:05:07;;;;;;;0.63;0.63;;;14.90;99.90;;;;;;5013922;28;20056;-80
2022/05/24 03:10:18;;;;;;;0.55;0.55;;;15.10;99.90;;;;;;5011200;28;20076;-79
2022/05/24 03:15:28;;;;;;;1.90;0.32;;;15.20;99.90;;;;;;5015276;28;20048;-78
2022/05/24 03:17:54;;;;;;;1.98;0.40;;;15.20;99.90;;;;;;5020466;28;20105;-79
2022/05/24 03:20:20;;;;;;;1.27;0.95;;;15.20;99.90;;;;;;5018969;28;20081;-78
2022/05/24 03:22:46;;;;;;;0.70;0.50;;;15.40;99.90;;;;;;5036434;28;20026;-79
2022/05/24 03:25:13;;;;;;;3.78;0.70;;;15.50;99.90;;;;;;5036218;28;20092;-79
2022/05/24 03:27:39;;;;;;;1.95;0.68;;;15.50;99.90;;;;;;5019970;28;20109;-77
2022/05/24 03:30:06;;;;;;;4.28;1.15;;;15.50;99.90;;;;;;5017647;28;20053;-79
2022/05/24 03:32:33;;;;;;;1.52;0.50;;;15.50;99.90;;;;;;5025903;28;20362;-79
2022/05/24 03:35:03;;;;;;;6.68;1.52;;;15.50;99.90;;;;;;5012865;28;20196;-78
2022/05/24 03:37:28;;;;;;;;;;;15.40;99.90;;;;;;5028835;28;20467;-78
2022/05/24 03:39:54;;;;;;;1.85;0.45;;;;;;;;;;5011834;28;19905;-78
2022/05/24 03:42:20;;;;;;;1.92;0.40;;;15.40;99.90;;;;;;5012853;28;20037;-80
2022/05/24 03:44:46;;;;;;;3.42;0.75;;;15.40;99.90;;;;;;5012228;28;20024;-79
2022/05/24 03:47:11;;;;;;;2.35;0.50;;;15.40;99.90;;;;;;5028646;28;20101;-80
2022/05/24 03:49:43;;;;;;;0.70;0.50;;;;;;;;;;5031182;28;20451;-80
2022/05/24 03:52:09;;;;;;;1.65;1.08;;;15.40;99.90;;;;;;5016133;28;20373;-79
2022/05/24 03:54:38;;;;;;;0.75;0.70;;;15.30;99.90;;;;;;5030923;28;20392;-81
2022/05/24 03:59:49;;;;;;;1.05;0.40;;;15.50;99.90;;;;;;5013472;28;20658;-79
2022/05/24 04:02:15;;;;;;;3.60;0.50;;;15.60;99.90;;;;;;5028317;28;20049;-80
2022/05/24 04:04:41;;;;;;;3.78;0.40;;;15.60;99.90;;;;;;5028455;28;20440;-80
2022/05/24 04:07:10;;;;;;;1.40;0.82;;;15.50;99.90;;;;;;5027284;28;20026;-79
2022/05/24 04:09:36;;;;;;;0.60;0.30;;;15.50;99.90;;;;;;5032830;28;20018;-79
2022/05/24 04:12:05;;;;;;;3.20;0.85;;;15.50;99.90;;;;;;5029038;28;20080;-79
2022/05/24 04:14:32;;;;;;;1.10;0.30;;;15.50;99.90;;;;;;5029926;28;20520;-81
2022/05/24 04:16:58;;;;;;;5.22;1.25;;;15.50;99.90;;;;;;5028965;28;20394;-80
2022/05/24 04:19:24;;;;;;;0.88;0.40;;;17.70;99.90;;;;;;5015772;28;20124;-80
2022/05/24 04:21:50;;;;;;;1.65;0.80;;;15.60;99.90;;;;;;5026207;28;20026;-78
2022/05/24 04:24:16;;;;;;;1.52;0.30;;;15.60;99.90;;;;;;5011735;28;20141;-78
2022/05/24 04:26:41;;;;;;;1.98;0.77;;;15.60;99.90;;;;;;5016781;28;20080;-80
2022/05/24 04:29:08;;;;;;;1.90;0.50;;;15.70;99.90;;;;;;5019153;28;20044;-78
2022/05/24 04:31:33;;;;;;;2.20;0.60;;;15.60;99.90;;;;;;5016336;28;20554;-79
2022/05/24 04:33:59;;;;;;;0.57;0.55;;;15.70;99.90;;;;;;5018543;28;20033;-78
2022/05/24 04:36:25;;;;;;;2.00;0.40;;;15.70;99.90;;;;;;5019853;28;20034;-79
2022/05/24 04:38:51;;;;;;;1.63;0.50;;;15.70;99.90;;;;;;5015576;28;20026;-76
2022/05/24 04:44:02;;;;;;;6.93;0.85;;;15.80;99.90;;;;;;5014494;28;20110;-78
2022/05/24 04:47:06;;;;;;;2.22;0.95;;;15.80;99.90;;;;;;5011018;28;20041;-80
2022/05/24 04:49:13;;;;;;;1.63;1.10;;;15.70;99.90;;;;;;5019905;28;20022;-79
2022/05/24 04:51:38;;;;;;;1.95;1.05;;;15.40;99.90;;;;;;5015293;28;20033;-78
2022/05/24 04:54:04;;;;;;;0.50;0.50;;;14.80;99.90;;;;;;5015064;28;20030;-78
2022/05/24 04:56:30;;;;;;;2.05;0.43;;;14.30;99.90;;;;;;5012195;28;20033;-78
2022/05/24 04:58:55;;;;;;;1.83;0.50;;;14.30;99.90;;;;;;5012183;28;20401;-75
2022/05/24 05:01:21;;;;;;;1.85;0.40;;;13.80;99.90;;;;;;5009772;28;20030;-76
2022/05/24 05:03:47;;;;;;;0.30;0.30;;;13.50;99.90;;;;;;5009083;28;20449;-76
2022/05/24 05:06:13;;;;;;;1.17;0.60;;;13.10;99.90;;;;;;5008251;28;20461;-75
2022/05/24 05:08:39;;;;;;;2.17;0.30;;;12.60;99.90;;;;;;5010192;28;20022;-76
2022/05/24 05:11:08;;;;;;;0.63;0.43;;;12.30;99.90;;;;;;5010918;28;20032;-76
2022/05/24 05:13:33;;;;;;;2.35;0.40;;;12.10;99.90;;;;;;5011314;28;20030;-77
2022/05/24 05:15:59;;;;;;;0.43;0.43;;;12.00;99.90;;;;;;5002723;28;20042;-76
2022/05/24 05:18:25;;;;;;;0.10;0.10;;;12.10;99.90;;;;;;5000461;28;20030;-78
2022/05/24 05:20:51;;;;;;;1.45;0.20;;;12.20;99.90;;;;;;5000656;28;20065;-75
2022/05/24 05:23:17;;;;;;;1.38;0.30;;;12.20;99.90;;;;;;5000185;28;20399;-76
2022/05/24 05:25:48;;;;;;;2.10;0.82;;;12.20;99.90;;;;;;4999915;28;20133;-74
2022/05/24 05:28:19;;;;;;;2.42;0.60;;;12.10;99.90;;;;;;5001759;28;20019;-75
2022/05/24 05:33:30;;;;;;;0.57;0.40;;;12.10;99.90;;;;;;5004887;28;20029;-78
2022/05/24 05:35:56;;;;;;;0.30;0.30;;;12.20;99.90;;;;;;5007789;28;20030;-77
2022/05/24 05:38:22;;;;;;;0.40;0.40;;;12.20;99.90;;;;;;5011677;28;20060;-76
2022/05/24 05:40:52;;;;;;;0.57;0.30;;;12.20;99.90;;;;;;4995877;28;20026;-76
2022/05/24 05:43:18;;;;;;;1.73;0.40;;;12.10;99.90;;;;;;4992353;28;20508;-76
2022/05/24 05:45:52;;;;;;;0.20;0.20;;;12.00;99.90;;;;;;4991446;28;20097;-77
2022/05/24 05:48:17;;;;;;;0.28;0.28;;;11.90;99.90;;;;;;4989451;28;20240;-76
2022/05/24 05:50:44;;;;;;;0.30;0.30;;;11.90;99.90;;;;;;4992235;28;20113;-76
2022/05/24 05:53:09;;;;;;;0.40;0.40;;;11.90;99.90;;;;;;4990808;28;20728;-76
2022/05/24 05:55:38;;;;;;;0.70;0.20;;;11.90;99.90;;;;;;4995959;28;20242;-79
2022/05/24 05:58:05;;;;;;;0.57;0.57;;;11.90;99.90;;;;;;5002498;28;20022;-80
2022/05/24 06:00:30;;;;;;;0.30;0.30;;;11.90;99.90;;;;;;4994856;28;20423;-80
2022/05/24 06:02:56;;;;;;;1.92;0.50;;;11.90;99.90;;;;;;4995110;28;20032;-80
2022/05/24 06:05:22;;;;;;;0.30;0.30;;;11.90;99.90;;;;;;4996953;28;20030;-78
2022/05/24 06:07:47;;;;;;;1.55;0.30;;;11.90;99.90;;;;;;4998081;28;20034;-79
2022/05/24 06:10:13;;;;;;;0.10;0.10;;;11.90;99.90;;;;;;5000986;28;20090;-79
2022/05/24 06:12:39;;;;;;;0.55;0.35;;;11.90;99.90;;;;;;4998853;28;20185;-79
2022/05/24 06:15:07;;;;;;;2.30;0.32;;;11.90;99.90;;;;;;4999245;28;20130;-79
2022/05/24 06:17:33;;;;;;;0.20;0.20;;;12.00;99.90;;;;;;4997671;28;20351;-80
2022/05/24 06:20:00;;;;;;;0.30;0.30;;;12.00;99.90;;;;;;5004880;28;20050;-81
2022/05/24 06:22:26;;;;;;;0.20;0.20;;;12.00;99.90;;;;;;5022469;28;20032;-81
2022/05/24 06:24:51;;;;;;;0.20;0.20;;;12.10;99.90;;;;;;5016987;28;20049;-81
2022/05/24 06:27:22;;;;;;;0.30;0.30;;;12.00;99.90;;;;;;5012335;28;20449;-80
2022/05/24 06:29:47;;;;;;;0.20;0.10;;;12.00;99.90;;;;;;5009583;28;20125;-79
2022/05/24 06:32:13;;;;;;;0.68;0.40;;;12.00;99.90;;;;;;5011877;28;20542;-81
2022/05/24 06:34:39;;;;;;;0.30;0.30;;;11.90;99.90;;;;;;5008488;28;20060;-80
2022/05/24 06:37:04;;;;;;;1.35;0.25;;;12.00;99.90;;;;;;5009342;28;20223;-79
2022/05/24 06:39:31;;;;;;;2.30;0.30;;;12.10;99.90;;;;;;5009081;28;20044;-78
2022/05/24 06:41:57;;;;;;;0.20;0.20;;;12.10;99.90;;;;;;5010652;28;20030;-81
2022/05/24 06:44:23;;;;;;;1.27;0.30;;;12.20;99.90;;;;;;5010271;28;20033;-79
2022/05/24 06:46:48;;;;;;;0.40;0.40;;;12.40;99.90;;;;;;5009858;28;20026;-79
2022/05/24 06:49:14;;;;;;;0.32;0.32;;;12.50;99.90;;;;;;5008563;28;20080;-78
2022/05/24 06:51:39;;;;;;;0.20;0.10;;;12.60;99.90;;;;;;5010143;28;20106;-80
2022/05/24 06:54:09;;;;;;;0.25;0.20;;;12.50;99.90;;;;;;5010739;28;20076;-80
2022/05/24 06:56:36;;;;;;;0.20;0.20;;;12.80;99.90;;;;;;5010947;28;20100;-80
2022/05/24 07:04:30;;;;;;;0.55;0.55;;;13.20;99.90;;;;;;5013921;28;20040;-77
2022/05/24 07:06:58;;;;;;;1.45;0.30;;;13.10;99.90;;;;;;5012704;28;20025;-78
2022/05/24 07:09:29;;;;;;;0.10;0.08;;;13.10;99.90;;;;;;5012896;28;20029;-78
2022/05/24 07:11:55;;;;;;;0.10;0.10;;;13.20;99.90;;;;;;5013589;28;20033;-79
2022/05/24 07:14:20;;;;;;;0.63;0.30;;;13.20;99.90;;;;;;5018080;28;20386;-80
2022/05/24 07:16:46;;;;;;;0.30;0.30;;;13.20;99.90;;;;;;5019044;28;20023;-80
2022/05/24 07:19:11;;;;;;;0.47;0.20;;;13.40;99.90;;;;;;5016884;28;20507;-81
2022/05/24 07:21:37;;;;;;;1.33;0.20;;;13.50;99.90;;;;;;5024986;28;20565;-81
2022/05/24 07:24:03;;;;;;;0.50;0.50;;;13.50;99.90;;;;;;5033116;28;20022;-80
2022/05/24 07:26:30;;;;;;;0.20;0.20;;;13.60;99.90;;;;;;5032354;28;20048;-79
2022/05/24 07:29:01;;;;;;;0.30;0.28;;;13.70;99.90;;;;;;5032648;28;20049;-79
2022/05/24 07:31:27;;;;;;;0.30;0.20;;;13.70;99.90;;;;;;5016989;28;20029;-81
2022/05/24 07:33:53;;;;;;;1.67;0.30;;;14.00;99.90;;;;;;5017539;28;20026;-79
2022/05/24 07:36:18;;;;;;;0.20;0.20;;;14.60;99.90;;;;;;5010939;28;20049;-77
2022/05/24 07:38:44;;;;;;;0.45;0.20;;;14.60;99.90;;;;;;5007978;28;20028;-81
2022/05/24 07:46:38;;;;;;;0.28;0.22;;;;;;;;;;5016735;28;20398;-81
2022/05/24 07:49:05;;;;;;;0.20;0.20;;;15.00;99.90;;;;;;5017561;28;20026;-80
2022/05/24 07:51:31;;;;;;;1.13;0.30;;;15.40;99.90;;;;;;5018576;28;20044;-80
2022/05/24 07:53:58;;;;;;;4.13;0.13;;;16.20;99.90;;;;;;5031361;28;20033;-78
2022/05/24 07:56:24;;;;;;;1.85;0.30;;;16.50;99.90;;;;;;5018157;28;20030;-81
2022/05/24 07:58:50;;;;;;;0.75;0.30;;;16.10;99.90;;;;;;5030650;28;20411;-81
2022/05/24 08:01:17;;;;;;;0.40;0.40;;;15.40;99.90;;;;;;5014871;28;20061;-80
2022/05/24 08:03:44;;;;;;;1.85;0.30;;;15.20;99.90;;;;;;5034502;28;20053;-80
2022/05/24 08:06:10;;;;;;;1.50;0.20;;;15.50;99.90;;;;;;5034560;28;20478;-82
2022/05/24 08:08:36;;;;;;;0.22;0.22;;;15.40;99.90;;;;;;5018891;28;20033;-82
2022/05/24 08:11:03;;;;;;;0.30;0.30;;;15.30;99.90;;;;;;5036322;28;20021;-82
2022/05/24 08:13:29;;;;;;;1.20;0.20;;;15.40;99.90;;;;;;5017410;28;20121;-78
2022/05/24 08:15:56;;;;;;;2.53;0.60;;;15.40;99.90;;;;;;5018424;28;20510;-78
2022/05/24 08:18:23;;;;;;;0.22;0.22;;;15.50;99.90;;;;;;5019245;28;20116;-78
2022/05/24 08:20:49;;;;;;;1.13;0.20;;;15.30;99.90;;;;;;5018471;28;20048;-77
2022/05/24 08:23:18;;;;;;;0.10;0.10;;;15.40;99.90;;;;;;5036145;28;20018;-78
2022/05/24 08:25:44;;;;;;;0.30;0.20;;;15.60;99.90;;;;;;5018866;28;20030;-78
2022/05/24 08:28:09;;;;;;;0.47;0.30;;;15.60;99.90;;;;;;5017890;28;20022;-77
2022/05/24 08:30:37;;;;;;;0.65;0.10;;;16.30;99.90;;;;;;5014895;28;20041;-79
2022/05/24 08:33:04;;;;;;;0.13;0.10;;;16.30;99.90;;;;;;5014730;28;20538;-78
2022/05/24 08:35:32;;;;;;;1.45;0.10;;;16.50;99.90;;;;;;5014945;28;20030;-79
2022/05/24 08:37:59;;;;;;;0.22;0.10;;;16.50;99.90;;;;;;5018137;28;20022;-79
2022/05/24 08:40:25;;;;;;;0.10;0.10;;;16.80;99.90;;;;;;5015933;28;20359;-78
2022/05/24 08:43:06;;;;;;;1.85;0.32;;;16.50;99.90;;;;;;5016615;28;20026;-78
2022/05/24 08:48:44;;;;;;;0.55;0.13;;;16.00;99.90;;;;;;5020797;28;20080;-78
2022/05/24 08:51:31;;;;;;;0.98;0.32;;;16.30;99.90;;;;;;5019674;28;20034;-79
2022/05/24 08:54:08;;;;;;;0.60;0.25;;;16.50;99.90;;;;;;5020089;28;20089;-79
2022/05/24 08:56:50;;;;;;;0.13;0.13;;;16.10;99.90;;;;;;5020589;28;20157;-79
2022/05/24 08:59:27;;;;;;;0.47;0.17;;;16.20;99.90;;;;;;5021315;28;20021;-79
2022/05/24 09:01:53;;;;;;;0.45;0.10;;;16.70;99.90;;;;;;5026920;28;20022;-84
2022/05/24 09:04:19;;;;;;;0.32;0.20;;;16.60;99.90;;;;;;5024132;28;20030;-79
2022/05/24 09:07:05;;;;;;;0.55;0.10;;;16.60;99.90;;;;;;5017195;28;20049;-79
2022/05/24 09:10:02;;;;;;;0.17;0.10;;;16.50;99.90;;;;;;5013999;28;20156;-79
2022/05/24 09:12:54;;;;;;;0.43;0.13;;;16.90;99.90;;;;;;5012909;28;20422;-80
2022/05/24 09:16:04;;;;;;;0.10;0.10;;;17.00;99.90;;;;;;4987870;28;20376;-78
2022/05/24 09:19:00;;;;;;;0.20;0.20;;;17.70;99.90;;;;;;5013413;28;20030;-79
2022/05/24 09:21:29;;;;;;;0.20;0.20;;;17.70;99.90;;;;;;5011706;28;20046;-78
2022/05/24 09:24:21;;;;;;;0.38;0.15;;;18.10;99.90;;;;;;5012934;28;20217;-79
2022/05/24 09:27:08;;;;;;;0.20;0.20;;;17.60;99.90;;;;;;5011312;28;20037;-79
2022/05/24 09:29:35;;;;;;;0.25;0.20;;;17.40;99.90;;;;;;5026241;28;20030;-79
2022/05/24 09:32:09;;;;;;;2.20;0.70;;;17.10;99.90;;;;;;5027528;28;20030;-79
2022/05/24 09:34:38;;;;;;;0.60;0.60;;;17.20;99.90;;;;;;5010151;28;20034;-78
2022/05/24 09:37:24;;;;;;;0.57;0.57;;;17.20;99.90;;;;;;5012103;28;20367;-79
2022/05/24 09:40:03;;;;;;;0.98;0.30;;;17.40;99.90;;;;;;5027910;28;20596;-79
2022/05/24 09:42:33;;;;;;;0.30;0.20;;;17.40;99.90;;;;;;5011436;28;20049;-79
2022/05/24 09:45:02;;;;;;;0.10;0.10;;;17.70;99.90;;;;;;5014155;28;20483;-79
2022/05/24 09:47:41;;;;;;;1.98;1.17;;;17.50;99.90;;;;;;5011816;28;20037;-78
2022/05/24 09:50:20;;;;;;;0.20;0.20;;;17.30;99.90;;;;;;5009920;28;20065;-78
2022/05/24 09:53:04;;;;;;;2.22;0.30;;;17.10;99.90;;;;;;5009361;28;20022;-80
2022/05/24 09:55:45;;;;;;;0.30;0.20;;;17.30;99.90;;;;;;5009629;28;20550;-79
2022/05/24 09:58:35;;;;;;;9.13;5.13;;;;;;;;;;5009425;28;20105;-78
2022/05/24 10:01:00;;;;;;;0.55;0.38;;;17.80;99.90;;;;;;5003898;28;20077;-79
2022/05/24 10:03:36;;;;;;;0.63;0.40;;;18.00;99.90;;;;;;5009122;28;20386;-78
2022/05/24 10:06:29;;;;;;;0.20;0.20;;;18.00;99.90;;;;;;5011301;28;20113;-78
2022/05/24 10:09:08;;;;;;;0.08;0.08;;;18.30;99.80;;;;;;5025219;28;20048;-78
2022/05/24 10:11:43;;;;;;;1.23;0.20;;;18.30;87.10;;;;;;5012268;28;20018;-80
2022/05/24 10:14:27;;;;;;;0.10;0.10;;;18.10;96.60;;;;;;5011375;28;20274;-79
2022/05/24 10:17:14;;;;;;;0.20;0.20;;;18.00;96.80;;;;;;5012817;28;20030;-80
2022/05/24 10:19:58;;;;;;;1.00;0.38;;;19.10;93.40;;;;;;5003742;28;20060;-82
2022/05/24 10:22:45;;;;;;;0.38;0.20;;;19.20;82.10;;;;;;5024279;28;20490;-79
2022/05/24 10:25:11;;;;;;;0.20;0.20;;;20.10;84.90;;;;;;5006776;28;20029;-79
2022/05/24 10:27:36;;;;;;;0.35;0.32;;;20.10;75.70;;;;;;5009997;28;20093;-78
2022/05/24 10:30:20;;;;;;;0.10;0.10;;;19.30;69.30;;;;;;5011189;28;20382;-78
2022/05/24 10:38:50;;;;;;;0.22;0.10;;;19.70;67.60;;;;;;5000893;28;20033;-78
2022/05/24 10:41:39;;;;;;;0.68;0.10;;;19.40;66.90;;;;;;5005605;28;20047;-78
2022/05/24 10:44:28;;;;;;;1.13;0.10;;;19.30;62.40;;;;;;4991841;28;20042;-78
2022/05/24 10:46:58;;;;;;;;;;;19.20;64.80;;;;;;5000417;28;20033;-78
2022/05/24 10:49:48;;;;;;;0.20;0.00;;;19.40;63.80;;;;;;5012237;28;19913;-78
2022/05/24 10:52:13;;;;;;;;;;;19.50;64.00;;;;;;5000312;28;20030;-78
2022/05/24 10:54:51;;;;;;;0.22;0.10;;;19.60;62.50;;;;;;4996809;28;19984;-78
2022/05/24 10:57:29;;;;;;;2.20;0.15;;;19.40;61.20;;;;;;5006343;28;20384;-77
2022/05/24 11:00:07;;;;;;;0.35;0.17;;;19.60;61.70;;;;;;5001615;28;20026;-78
2022/05/24 11:02:42;;;;;;;0.10;0.10;;;19.40;60.90;;;;;;4992696;28;20033;-78
2022/05/24 11:05:35;;;;;;;0.95;0.20;;;20.00;59.80;;;;;;5006708;28;20088;-78
2022/05/24 11:08:29;;;;;;;0.10;0.10;;;19.70;59.40;;;;;;4997992;28;20269;-78
2022/05/24 11:11:00;;;;;;;0.10;0.10;;;19.70;61.60;;;;;;4987231;28;20491;-79
2022/05/24 11:13:46;;;;;;;1.02;0.10;;;20.40;62.00;;;;;;4986106;28;20097;-78
2022/05/24 11:16:19;;;;;;;0.47;0.30;;;21.30;61.50;;;;;;4984101;28;20137;-78
2022/05/24 11:18:44;;;;;;;0.17;0.17;;;22.00;57.30;;;;;;4984600;28;20109;-78
2022/05/24 11:21:18;;;;;;;0.15;0.10;;;22.00;55.70;;;;;;4992837;28;20116;-78
2022/05/24 11:24:11;;;;;;;0.52;0.10;;;21.10;56.70;;;;;;5004720;28;20128;-78
2022/05/24 11:26:46;;;;;;;0.10;0.10;;;20.70;58.30;;;;;;5004871;28;20025;-78
2022/05/24 11:29:26;;;;;;;0.95;0.32;;;20.60;60.40;;;;;;5005587;28;20029;-78
2022/05/24 11:32:08;;;;;;;0.35;0.20;;;20.30;59.00;;;;;;5004458;28;20026;-78
2022/05/24 11:35:00;;;;;;;1.55;0.35;;;20.20;61.30;;;;;;5005272;28;20025;-78
2022/05/24 11:37:38;;;;;;;0.45;0.32;;;19.80;60.80;;;;;;5007905;28;20526;-78
2022/05/24 11:40:37;;;;;;;1.48;0.10;;;20.50;62.40;;;;;;5009867;28;20036;-78
2022/05/24 11:43:35;;;;;;;0.10;0.10;;;20.70;61.30;;;;;;5014609;28;20045;-78
2022/05/24 11:46:06;;;;;;;2.47;0.20;;;21.40;61.70;;;;;;5007144;28;20026;-78
2022/05/24 11:48:50;;;;;;;0.10;0.10;;;22.00;61.30;;;;;;5008782;28;20010;-79
2022/05/24 11:51:36;;;;;;;1.33;0.10;;;21.80;59.60;;;;;;5012139;28;20394;-80
2022/05/24 11:54:05;;;;;;;0.38;0.30;;;22.10;57.40;;;;;;5020916;28;20029;-83
2022/05/24 11:56:31;;;;;;;1.70;0.25;;;22.10;58.50;;;;;;5021476;28;20034;-84
2022/05/24 11:59:04;;;;;;;0.50;0.30;;;21.50;59.10;;;;;;5021357;28;20029;-87
2022/05/24 12:01:40;;;;;;;2.60;0.93;;;21.50;60.10;;;;;;5022026;28;20029;-81
2022/05/24 12:09:59;;;;;;;0.65;0.20;;;20.80;61.20;;;;;;5021735;28;20238;-84
2022/05/24 12:13:16;;;;;;;0.40;0.10;;;21.00;63.80;;;;;;5022156;28;20081;-82
2022/05/24 12:15:43;;;;;;;1.35;0.10;;;21.60;61.00;;;;;;5002797;28;20045;-84
2022/05/24 12:18:09;;;;;;;0.20;0.20;;;22.00;61.70;;;;;;5011968;28;20021;-83
2022/05/24 12:20:35;;;;;;;1.00;0.15;;;22.20;59.20;;;;;;5009616;28;20046;-83
2022/05/24 12:23:07;;;;;;;0.10;0.10;;;23.60;59.50;;;;;;5010023;28;20029;-81
2022/05/24 12:25:54;;;;;;;0.82;0.20;;;24.10;57.50;;;;;;5010144;28;20057;-80
2022/05/24 12:28:48;;;;;;;1.08;0.20;;;21.70;57.50;;;;;;5010545;28;20037;-86
2022/05/24 12:31:13;;;;;;;1.20;0.20;;;21.10;62.20;;;;;;5009395;28;20057;-80
2022/05/24 12:33:46;;;;;;;2.00;0.15;;;20.30;60.60;;;;;;5009881;28;20064;-86
2022/05/24 12:36:18;;;;;;;0.50;0.20;;;21.30;59.90;;;;;;5027466;28;20033;-84
2022/05/24 12:38:56;;;;;;;0.28;0.13;;;21.90;58.00;;;;;;5012737;28;20026;-81
2022/05/24 12:41:29;;;;;;;0.57;0.32;;;21.70;57.50;;;;;;5013233;28;20033;-89
2022/05/24 12:44:10;;;;;;;0.10;0.10;;;21.30;62.10;;;;;;5012826;28;20021;-88
2022/05/24 12:46:36;;;;;;;0.28;0.10;;;21.90;61.00;;;;;;5010883;28;20040;-87
2022/05/24 12:49:10;;;;;;;0.10;0.10;;;22.60;59.50;;;;;;5025402;28;20022;-81
2022/05/24 12:51:38;;;;;;;1.55;0.10;;;22.30;59.20;;;;;;5011567;28;20244;-82
2022/05/24 12:54:34;;;;;;;0.20;0.10;;;22.70;58.40;;;;;;5011096;28;20065;-87
2022/05/24 12:57:09;;;;;;;0.40;0.10;;;23.20;58.20;;;;;;5009678;28;20110;-85
2022/05/24 12:59:49;;;;;;;2.40;0.35;;;24.10;56.40;;;;;;5016549;28;20327;-85
2022/05/24 13:02:33;;;;;;;0.80;0.20;;;22.90;57.40;;;;;;5028847;28;20364;-87
2022/05/24 13:05:08;;;;;;;1.95;0.88;;;23.80;55.90;;;;;;5008459;28;20087;-86
2022/05/24 13:07:40;;;;;;;0.10;0.10;;;23.70;53.00;;;;;;5009085;28;20088;-85
2022/05/24 13:10:13;;;;;;;0.30;0.30;;;22.60;54.80;;;;;;5024722;28;20026;-83
2022/05/24 13:12:39;;;;;;;0.30;0.20;;;21.70;55.50;;;;;;5026024;28;20057;-87
2022/05/24 13:15:09;;;;;;;0.30;0.20;;;21.10;57.60;;;;;;5013577;28;20053;-85
2022/05/24 13:17:42;;;;;;;2.25;0.28;;;21.00;58.50;;;;;;5037351;28;20026;-83
2022/05/24 13:20:24;;;;;;;2.20;0.30;;;20.70;58.60;;;;;;5032236;28;20545;-91
2022/05/24 13:23:03;;;;;;;1.38;0.25;;;20.70;60.30;;;;;;5027890;28;20026;-92
2022/05/24 13:26:05;;;;;;;0.10;0.10;;;21.00;58.40;;;;;;5028069;28;20018;-89
2022/05/24 13:28:32;;;;;;;0.15;0.10;;;22.00;55.00;;;;;;4970039;28;20038;-81
2022/05/24 13:33:49;;;;;;;0.20;0.20;;;22.40;55.80;;;;;;5008958;28;20045;-83
2022/05/24 13:36:26;;;;;;;0.55;0.20;;;20.30;54.80;;;;;;5009660;28;20037;-81
2022/05/24 13:39:07;;;;;;;0.55;0.20;;;22.10;55.90;;;;;;5024841;28;20022;-82
2022/05/24 13:41:39;;;;;;;0.85;0.30;;;21.10;56.10;;;;;;5008167;28;20037;-79
2022/05/24 13:44:25;;;;;;;0.10;0.10;;;21.00;55.50;;;;;;5023982;28;20069;-79
2022/05/24 13:46:56;;;;;;;0.45;0.13;;;20.70;57.20;;;;;;5015039;28;20368;-78
2022/05/24 13:49:34;;;;;;;0.38;0.13;;;20.80;56.90;;;;;;5021094;28;20033;-80
2022/05/24 13:52:20;;;;;;;0.10;0.10;;;21.40;55.30;;;;;;5008185;28;20302;-80
2022/05/24 13:54:48;;;;;;;0.30;0.10;;;21.40;55.80;;;;;;5004359;28;20326;-80
2022/05/24 13:57:27;;;;;;;0.43;0.20;;;22.50;55.10;;;;;;5020817;28;20068;-79
2022/05/24 14:00:03;;;;;;;0.43;0.00;;;21.40;54.60;;;;;;5006576;28;20030;-80
2022/05/24 14:02:29;;;;;;;0.52;0.20;;;21.70;55.30;;;;;;5007347;28;20537;-80
2022/05/24 14:04:55;;;;;;;1.05;0.20;;;21.70;55.80;;;;;;5022453;28;20032;-79